Ellensburg, WA (98926)

5:31 AM PST on December 09, 2016 (GMT -0800)
Central Washington University | | Change Station

Elev 1598 ft 47.01 °N, 120.54 °W | Updated 9 minutes ago

Light Snow
Light Snow
18.5 °F
Feels Like 18 °F
N
0.0
Wind Variable Wind from South

Today
High -- | Low -- °F
--% Chance of Precip.
Yesterday
High -- | Low -- °F
Precip. -- in
Pressure 30.22 in
Visibility 8.0 miles
Clouds Overcast 3700 ft
Windchill 18 °F
Dew Point 16 °F
Humidity 90%
Rainfall 0.00 in
Snow Depth Not available.
7:36 AM 4:13 PM
Waxing Gibbous, 74% visible
METAR KELN 091253Z AUTO 35003KT 8SM -SN OVC037 M07/M09 A3014 RMK AO2 SLP231 P0000 T10671094
Pressure 30.22 in
Visibility 8.0 miles
Clouds Overcast 3700 ft
Windchill 18 °F
Dew Point 16 °F
Humidity 90%
Rainfall 0.00 in
Snow Depth Not available.
7:36 AM 4:13 PM
Waxing Gibbous, 74% visible
METAR KELN 091253Z AUTO 35003KT 8SM -SN OVC037 M07/M09 A3014 RMK AO2 SLP231 P0000 T10671094

10-Day Weather Forecast

Almanac

Astronomy

Dec. 09, 2016 Rise Set
Actual Time
Civil Twilight
Nautical Twilight
Astronomical Twilight
Moon
Length of Visible Light
Length of Day
Tomorrow will be .
, % of the Moon is Illuminated

Today's Extremes

State Highs State Lows

Community

WunderPhotos

Upload Photos

1,956,407 photos uploaded!

WunderBlog® & News

Nearby

Air Quality

  Air Quality AQ Index Pollutant
Not available.

Snow Depth

Station Depth Elevation

Earthquake Activity

City Distance Mag. Time & Date
Minimum magnitude displayed is 2.5.

Coastal Water Temperatures

Place Temperature

Stations

Nearby Weather Stations

Station Location Temp. Windchill Dew Point Humidity Wind Precip. Elev Updated Type
                   

Watches & Warnings

There are currently no watches in effect.